createdAt,value
2022-11-21T00:01:00.284Z,-1.66
2022-11-21T00:04:16.619Z,-1.71
2022-11-21T00:07:32.969Z,-1.71
2022-11-21T00:10:50.074Z,-1.64
2022-11-21T00:14:06.857Z,-1.53
2022-11-21T00:17:23.010Z,-1.47
2022-11-21T00:20:40.975Z,-1.40
2022-11-21T00:23:59.591Z,-1.38
2022-11-21T00:27:15.994Z,-1.44
2022-11-21T00:30:32.403Z,-1.47
2022-11-21T00:33:48.536Z,-1.48
2022-11-21T00:37:04.809Z,-1.50
2022-11-21T00:40:22.681Z,-1.56
2022-11-21T00:43:39.915Z,-1.52
2022-11-21T00:46:55.972Z,-1.54
2022-11-21T00:50:13.353Z,-1.64
2022-11-21T00:53:29.341Z,-1.66
2022-11-21T00:56:45.708Z,-1.65
2022-11-21T01:00:01.970Z,-1.66
2022-11-21T01:03:19.349Z,-1.65
2022-11-21T01:06:35.581Z,-1.62
2022-11-21T01:09:52.053Z,-1.59
2022-11-21T01:13:08.257Z,-1.57
2022-11-21T01:16:27.963Z,-1.53
2022-11-21T01:19:41.849Z,-1.52
2022-11-21T01:22:57.807Z,-1.56
2022-11-21T01:26:15.795Z,-1.56
2022-11-21T01:29:32.789Z,-1.63
2022-11-21T01:32:48.889Z,-1.72
2022-11-21T01:36:06.962Z,-1.77
2022-11-21T01:39:23.054Z,-1.79
2022-11-21T01:42:53.658Z,-1.81
2022-11-21T01:46:17.772Z,-1.85
2022-11-21T01:49:38.088Z,-1.89
2022-11-21T01:52:54.332Z,-1.86
2022-11-21T01:56:11.886Z,-1.94
2022-11-21T01:59:32.372Z,-1.99
2022-11-21T02:02:52.453Z,-2.05
2022-11-21T02:06:09.121Z,-1.99
2022-11-21T02:09:26.207Z,-1.98
2022-11-21T02:12:46.818Z,-2.06
2022-11-21T02:16:04.107Z,-2.19
2022-11-21T02:19:26.114Z,-2.24
2022-11-21T02:22:50.104Z,-2.25
2022-11-21T02:26:06.605Z,-2.23
2022-11-21T02:29:24.112Z,-2.21
2022-11-21T02:32:47.642Z,-2.25
2022-11-21T02:36:09.007Z,-2.20
2022-11-21T02:39:29.720Z,-2.18
2022-11-21T02:42:52.642Z,-2.31
2022-11-21T02:46:08.000Z,-2.43
2022-11-21T02:49:28.165Z,-2.53
2022-11-21T02:52:44.628Z,-2.61
2022-11-21T02:56:00.973Z,-2.57
2022-11-21T02:59:17.348Z,-2.61
2022-11-21T03:02:33.814Z,-2.68
2022-11-21T03:05:50.890Z,-2.83
2022-11-21T03:09:07.210Z,-2.86
2022-11-21T03:12:23.487Z,-2.88
2022-11-21T03:15:41.814Z,-2.86
2022-11-21T03:18:58.776Z,-2.82
2022-11-21T03:22:15.448Z,-2.72
2022-11-21T03:25:32.089Z,-2.83
2022-11-21T03:28:48.906Z,-2.96
2022-11-21T03:32:05.072Z,-3.08
2022-11-21T03:35:21.621Z,-3.06
2022-11-21T03:38:37.767Z,-3.04
2022-11-21T03:41:54.151Z,-3.07
2022-11-21T03:45:10.935Z,-3.14
2022-11-21T03:48:27.315Z,-3.35
2022-11-21T03:51:46.056Z,-3.39
2022-11-21T03:55:02.427Z,-3.39
2022-11-21T03:58:18.982Z,-3.39
2022-11-21T04:01:36.848Z,-3.41
2022-11-21T04:04:53.945Z,-3.40
2022-11-21T04:08:10.519Z,-3.44
2022-11-21T04:11:27.442Z,-3.54
2022-11-21T04:14:43.525Z,-3.47
2022-11-21T04:17:59.872Z,-3.47
2022-11-21T04:21:16.775Z,-3.44
2022-11-21T04:24:32.945Z,-3.49
2022-11-21T04:27:49.192Z,-3.49
2022-11-21T04:31:11.073Z,-3.53
2022-11-21T04:34:28.086Z,-3.58
2022-11-21T04:37:47.049Z,-3.51
2022-11-21T04:41:03.539Z,-3.57
2022-11-21T04:44:19.727Z,-3.71
2022-11-21T04:47:36.093Z,-3.78
2022-11-21T04:50:52.810Z,-3.73
2022-11-21T04:54:10.515Z,-3.74
2022-11-21T04:57:26.729Z,-3.72
2022-11-21T05:00:43.070Z,-3.66
2022-11-21T05:03:59.903Z,-3.68
2022-11-21T05:07:16.289Z,-3.81
2022-11-21T05:10:34.926Z,-3.81
2022-11-21T05:13:51.373Z,-3.61
2022-11-21T05:17:07.497Z,-3.58
2022-11-21T05:20:25.110Z,-3.54
2022-11-21T05:23:42.361Z,-3.47
2022-11-21T05:26:59.536Z,-3.59
2022-11-21T05:30:18.821Z,-3.61
2022-11-21T05:33:32.955Z,-3.64
2022-11-21T05:36:49.514Z,-3.58
2022-11-21T05:40:06.151Z,-3.74
2022-11-21T05:43:36.705Z,-3.67
2022-11-21T05:46:53.532Z,-3.57
2022-11-21T05:50:09.897Z,-3.69
2022-11-21T05:53:26.502Z,-3.83
2022-11-21T05:56:42.714Z,-3.85
2022-11-21T05:59:59.061Z,-3.92
2022-11-21T06:03:36.092Z,-3.94
2022-11-21T06:06:52.947Z,-4.00
2022-11-21T06:10:10.647Z,-4.04
2022-11-21T06:13:27.666Z,-4.08
2022-11-21T06:16:45.143Z,-4.10
2022-11-21T06:20:02.141Z,-4.07
2022-11-21T06:23:18.546Z,-4.07
2022-11-21T06:26:35.794Z,-4.00
2022-11-21T06:29:52.026Z,-3.93
2022-11-21T06:33:10.367Z,-3.87
2022-11-21T06:36:27.430Z,-3.84
2022-11-21T06:39:45.847Z,-3.82
2022-11-21T06:43:02.186Z,-3.83
2022-11-21T06:46:19.819Z,-3.76
2022-11-21T06:49:36.093Z,-3.60
2022-11-21T06:52:52.443Z,-3.41
2022-11-21T06:56:10.795Z,-3.33
2022-11-21T06:59:27.899Z,-3.16
2022-11-21T07:02:44.141Z,-3.09
2022-11-21T07:06:02.474Z,-2.94
2022-11-21T07:09:32.755Z,-2.80
2022-11-21T07:12:50.865Z,-2.59
2022-11-21T07:16:14.359Z,-2.50
2022-11-21T07:19:32.574Z,-2.39
2022-11-21T07:22:51.300Z,-2.41
2022-11-21T07:26:13.470Z,-2.37
2022-11-21T07:29:30.443Z,-2.45
2022-11-21T07:32:56.315Z,-2.36
2022-11-21T07:36:13.887Z,-2.28
2022-11-21T07:39:31.099Z,-2.22
2022-11-21T07:42:51.112Z,-2.14
2022-11-21T07:46:12.264Z,-2.06
2022-11-21T07:49:29.385Z,-1.97
2022-11-21T07:52:47.231Z,-1.79
2022-11-21T07:56:05.646Z,-1.84
2022-11-21T07:59:21.997Z,-1.79
2022-11-21T08:02:39.581Z,-1.49
2022-11-21T08:05:56.327Z,-1.22
2022-11-21T08:09:12.531Z,-0.93
2022-11-21T08:12:47.687Z,-0.71
2022-11-21T08:16:07.578Z,-0.43
2022-11-21T08:19:26.468Z,-0.23
2022-11-21T08:22:47.296Z,-0.05
2022-11-21T08:26:04.455Z,0.11
2022-11-21T08:29:21.481Z,0.27
2022-11-21T08:32:37.976Z,0.35
2022-11-21T08:35:54.326Z,0.44
2022-11-21T08:39:12.347Z,0.38
2022-11-21T08:42:28.421Z,0.49
2022-11-21T08:45:46.207Z,0.52
2022-11-21T08:49:02.570Z,0.73
2022-11-21T08:52:19.654Z,0.86
2022-11-21T08:55:36.149Z,0.95
2022-11-21T08:58:56.893Z,1.06
2022-11-21T09:02:15.498Z,1.19
2022-11-21T09:05:33.336Z,1.28
2022-11-21T09:08:49.979Z,1.35
2022-11-21T09:12:06.212Z,1.51
2022-11-21T09:15:37.219Z,1.60
2022-11-21T09:18:53.600Z,1.61
2022-11-21T09:22:10.102Z,1.74
2022-11-21T09:25:26.610Z,1.93
2022-11-21T09:28:43.132Z,1.83
2022-11-21T09:31:59.498Z,1.73
2022-11-21T09:35:16.826Z,1.70
2022-11-21T09:38:34.227Z,1.63
2022-11-21T09:41:58.049Z,1.56
2022-11-21T09:45:19.600Z,1.55
2022-11-21T09:51:55.152Z,1.40
2022-11-21T09:55:20.945Z,1.36
2022-11-21T09:58:47.119Z,1.36
2022-11-21T10:08:31.002Z,1.35
2022-11-21T10:12:13.040Z,1.35
2022-11-21T10:15:47.084Z,1.39
2022-11-21T10:19:48.442Z,1.49
2022-11-21T10:23:55.050Z,1.59
2022-11-21T10:27:17.780Z,1.44
2022-11-21T10:30:35.064Z,1.53
2022-11-21T10:33:53.055Z,1.58
2022-11-21T10:37:17.540Z,1.61
2022-11-21T10:40:44.666Z,1.57
2022-11-21T10:44:21.643Z,1.58
2022-11-21T10:47:43.012Z,1.63
2022-11-21T10:51:11.693Z,1.64
2022-11-21T10:54:40.291Z,1.67
2022-11-21T10:57:58.129Z,1.72
2022-11-21T11:01:16.054Z,1.65
2022-11-21T11:04:43.907Z,1.80
2022-11-21T11:08:08.833Z,1.84
2022-11-21T11:11:31.344Z,1.78
2022-11-21T11:14:47.932Z,1.85
2022-11-21T11:18:09.763Z,1.78
2022-11-21T11:21:31.230Z,1.82
2022-11-21T11:24:51.091Z,1.94
2022-11-21T11:28:12.872Z,2.06
2022-11-21T11:31:30.267Z,2.13
2022-11-21T11:34:54.010Z,2.20
2022-11-21T11:38:13.678Z,2.22
2022-11-21T11:42:11.269Z,2.22
2022-11-21T11:46:01.248Z,2.33
2022-11-21T11:49:21.973Z,2.35
2022-11-21T11:52:41.716Z,2.36
2022-11-21T11:56:01.787Z,2.40
2022-11-21T11:59:27.139Z,2.43
2022-11-21T12:02:53.303Z,2.50
2022-11-21T12:06:36.170Z,2.54
2022-11-21T12:09:50.503Z,2.58
2022-11-21T12:13:12.116Z,2.59
2022-11-21T12:16:31.714Z,2.58
2022-11-21T12:19:49.649Z,2.57
2022-11-21T12:23:06.929Z,2.56
2022-11-21T12:26:49.758Z,2.53
2022-11-21T12:30:39.701Z,2.55
2022-11-21T12:34:03.104Z,2.55
2022-11-21T12:37:30.209Z,2.55
2022-11-21T12:40:56.359Z,2.56
2022-11-21T12:44:23.264Z,2.61
2022-11-21T12:48:18.089Z,2.64
2022-11-21T12:52:27.601Z,2.66
2022-11-21T12:55:48.012Z,2.66
2022-11-21T12:59:08.453Z,2.66
2022-11-21T13:02:35.831Z,2.66
2022-11-21T13:05:57.869Z,2.58
2022-11-21T13:09:24.769Z,2.59
2022-11-21T13:12:54.459Z,2.60
2022-11-21T13:16:23.960Z,2.64
2022-11-21T13:19:51.595Z,2.67
2022-11-21T13:23:10.225Z,2.71
2022-11-21T13:27:02.716Z,2.73
2022-11-21T13:30:34.409Z,2.74
2022-11-21T13:34:06.775Z,2.74
2022-11-21T13:37:56.359Z,2.76
2022-11-21T13:41:43.400Z,2.79
2022-11-21T13:45:00.511Z,2.83
2022-11-21T13:48:57.404Z,2.86
2022-11-21T13:52:17.999Z,2.87
2022-11-21T13:56:06.198Z,2.86
2022-11-21T13:59:47.110Z,2.87
2022-11-21T14:04:05.435Z,2.82
2022-11-21T14:07:36.223Z,2.84
2022-11-21T14:11:04.999Z,2.82
2022-11-21T14:14:46.181Z,2.80
2022-11-21T14:18:05.535Z,2.79
2022-11-21T14:21:37.122Z,2.78
2022-11-21T14:25:27.130Z,2.77
2022-11-21T14:28:45.410Z,2.73
2022-11-21T14:32:02.683Z,2.71
2022-11-21T14:35:26.621Z,2.70
2022-11-21T14:39:35.318Z,2.68
2022-11-21T14:42:25.783Z,2.64
2022-11-21T14:45:42.100Z,2.46
2022-11-21T14:49:02.283Z,2.23
2022-11-21T14:52:31.800Z,2.07
2022-11-21T14:55:49.297Z,1.91
2022-11-21T14:59:10.139Z,1.76
2022-11-21T15:02:30.349Z,1.66
2022-11-21T15:06:01.910Z,1.61
2022-11-21T15:12:42.874Z,1.64
2022-11-21T15:16:01.366Z,1.63
2022-11-21T15:19:30.948Z,1.61
2022-11-21T15:22:49.820Z,1.56
2022-11-21T15:26:10.383Z,1.56
2022-11-21T15:29:31.551Z,1.58
2022-11-21T15:33:13.289Z,1.61
2022-11-21T15:36:32.912Z,1.67
2022-11-21T15:39:55.794Z,1.65
2022-11-21T15:43:43.497Z,1.67
2022-11-21T15:47:22.601Z,1.77
2022-11-21T15:50:38.828Z,1.91
2022-11-21T15:53:57.637Z,1.97
2022-11-21T15:57:29.396Z,2.01
2022-11-21T16:00:50.810Z,2.08
2022-11-21T16:04:42.362Z,2.11
2022-11-21T16:08:08.872Z,2.06
2022-11-21T16:14:39.991Z,1.97
2022-11-21T16:17:58.862Z,1.93
2022-11-21T16:21:17.994Z,1.91
2022-11-21T16:24:36.807Z,1.94
2022-11-21T16:28:44.443Z,1.97
2022-11-21T16:35:32.226Z,1.81
2022-11-21T16:38:54.315Z,1.73
2022-11-21T16:42:39.396Z,1.75
2022-11-21T16:46:01.169Z,1.77
2022-11-21T16:49:29.618Z,1.76
2022-11-21T16:52:47.717Z,1.71
2022-11-21T16:56:16.315Z,1.70
2022-11-21T16:59:34.568Z,1.80
2022-11-21T17:02:54.610Z,1.89
2022-11-21T17:06:16.523Z,1.96
2022-11-21T17:09:35.907Z,2.00
2022-11-21T17:12:53.540Z,1.92
2022-11-21T17:16:16.857Z,1.87
2022-11-21T17:19:33.461Z,1.99
2022-11-21T17:22:49.984Z,2.00
2022-11-21T17:26:11.049Z,2.03
2022-11-21T17:29:31.137Z,2.07
2022-11-21T17:32:48.977Z,2.10
2022-11-21T17:36:07.238Z,2.12
2022-11-21T17:39:29.459Z,2.11
2022-11-21T17:42:44.665Z,2.16
2022-11-21T17:46:11.833Z,2.20
2022-11-21T17:49:31.476Z,2.13
2022-11-21T17:52:51.021Z,2.16
2022-11-21T17:56:11.284Z,2.25
2022-11-21T17:59:30.373Z,2.29
2022-11-21T18:02:49.659Z,2.28
2022-11-21T18:06:24.269Z,2.22
2022-11-21T18:09:42.877Z,2.22
2022-11-21T18:13:01.170Z,2.16
2022-11-21T18:16:21.670Z,2.17
2022-11-21T18:19:38.111Z,2.25
2022-11-21T18:22:54.852Z,2.29
2022-11-21T18:26:18.600Z,2.34
2022-11-21T18:29:37.446Z,2.35
2022-11-21T18:32:59.383Z,2.33
2022-11-21T18:36:18.343Z,2.32
2022-11-21T18:39:39.659Z,2.35
2022-11-21T18:43:19.753Z,2.38
2022-11-21T18:47:47.740Z,2.38
2022-11-21T18:50:41.576Z,2.34
2022-11-21T18:54:04.860Z,2.33
2022-11-21T18:57:32.801Z,2.36
2022-11-21T19:04:45.434Z,2.45
2022-11-21T19:08:14.635Z,2.51
2022-11-21T19:11:36.400Z,2.53
2022-11-21T19:14:56.399Z,2.43
2022-11-21T19:18:18.349Z,2.34
2022-11-21T19:21:38.533Z,2.34
2022-11-21T19:24:59.142Z,2.40
2022-11-21T19:28:15.805Z,2.34
2022-11-21T19:31:39.083Z,2.34
2022-11-21T19:34:53.206Z,2.35
2022-11-21T19:38:10.178Z,2.26
2022-11-21T19:41:31.655Z,2.22
2022-11-21T19:44:47.997Z,2.20
2022-11-21T19:48:06.814Z,2.12
2022-11-21T19:51:26.228Z,2.18
2022-11-21T19:54:46.330Z,2.26
2022-11-21T19:58:03.060Z,2.25
2022-11-21T20:01:23.259Z,2.25
2022-11-21T20:04:41.118Z,2.28
2022-11-21T20:08:03.633Z,2.30
2022-11-21T20:11:22.198Z,2.33
2022-11-21T20:14:39.168Z,2.38
2022-11-21T20:18:00.894Z,2.41
2022-11-21T20:21:21.198Z,2.40
2022-11-21T20:24:41.672Z,2.41
2022-11-21T20:27:59.256Z,2.45
2022-11-21T20:31:21.383Z,2.45
2022-11-21T20:34:41.458Z,2.44
2022-11-21T20:38:24.211Z,2.48
2022-11-21T20:41:43.011Z,2.60
2022-11-21T20:48:20.629Z,2.63
2022-11-21T20:54:59.999Z,2.69
2022-11-21T20:58:17.530Z,2.78
2022-11-21T21:01:34.676Z,2.84
2022-11-21T21:04:57.016Z,2.95
2022-11-21T21:08:14.598Z,3.00
2022-11-21T21:14:52.261Z,3.08
2022-11-21T21:18:09.881Z,3.11
2022-11-21T21:21:29.183Z,3.13
2022-11-21T21:24:45.616Z,3.13
2022-11-21T21:28:02.315Z,3.16
2022-11-21T21:31:22.697Z,3.18
2022-11-21T21:34:38.993Z,3.15
2022-11-21T21:37:55.699Z,3.15
2022-11-21T21:41:13.983Z,3.21
2022-11-21T21:44:33.564Z,3.20
2022-11-21T21:47:48.768Z,3.23
2022-11-21T21:51:14.108Z,3.23
2022-11-21T21:54:31.806Z,3.24
2022-11-21T21:57:52.492Z,3.31
2022-11-21T22:01:12.601Z,3.35
2022-11-21T22:04:29.705Z,3.36
2022-11-21T22:07:49.014Z,3.37
2022-11-21T22:11:12.175Z,3.35
2022-11-21T22:14:29.803Z,3.38
2022-11-21T22:17:55.910Z,3.39
2022-11-21T22:21:22.483Z,3.35
2022-11-21T22:24:40.211Z,3.32
2022-11-21T22:27:56.864Z,3.29
2022-11-21T22:31:14.874Z,3.27
2022-11-21T22:34:34.444Z,3.10
2022-11-21T22:37:50.867Z,2.96
2022-11-21T22:41:14.222Z,2.86
2022-11-21T22:44:30.923Z,2.74
2022-11-21T22:47:48.324Z,2.65
2022-11-21T22:51:05.067Z,2.52
2022-11-21T22:54:21.941Z,2.36
2022-11-21T22:57:40.476Z,2.26
2022-11-21T23:00:56.869Z,2.17
2022-11-21T23:04:17.642Z,2.02
2022-11-21T23:07:32.881Z,1.88
2022-11-21T23:11:20.853Z,1.72
2022-11-21T23:14:38.598Z,1.65
2022-11-21T23:17:57.829Z,1.44
2022-11-21T23:21:16.829Z,1.45
2022-11-21T23:24:33.613Z,1.31
2022-11-21T23:27:50.422Z,1.22
2022-11-21T23:31:08.169Z,1.21
2022-11-21T23:34:24.672Z,1.10
2022-11-21T23:37:41.283Z,1.00
2022-11-21T23:41:01.046Z,1.04
2022-11-21T23:44:19.601Z,1.01
2022-11-21T23:47:36.147Z,0.92
2022-11-21T23:50:52.825Z,0.74
2022-11-21T23:54:09.702Z,0.67
2022-11-21T23:57:26.030Z,0.62
